sensor_id;sensor_type;location;lat;lon;timestamp;temperature;humidity
28524;DHT22;15734;50.904;6.922;2022-12-29T00:01:13;11.00;99.90
28524;DHT22;15734;50.904;6.922;2022-12-29T00:03:39;11.00;99.90
28524;DHT22;15734;50.904;6.922;2022-12-29T00:06:04;11.00;99.90
28524;DHT22;15734;50.904;6.922;2022-12-29T00:08:29;11.00;99.90
28524;DHT22;15734;50.904;6.922;2022-12-29T00:11:07;11.10;99.90
28524;DHT22;15734;50.904;6.922;2022-12-29T00:13:33;11.00;99.90
28524;DHT22;15734;50.904;6.922;2022-12-29T00:16:17;11.00;99.90
28524;DHT22;15734;50.904;6.922;2022-12-29T00:18:43;11.00;99.90
28524;DHT22;15734;50.904;6.922;2022-12-29T00:21:15;11.00;99.90
28524;DHT22;15734;50.904;6.922;2022-12-29T00:24:00;11.00;99.90
28524;DHT22;15734;50.904;6.922;2022-12-29T00:26:45;11.00;99.90
28524;DHT22;15734;50.904;6.922;2022-12-29T00:29:29;11.10;99.90
28524;DHT22;15734;50.904;6.922;2022-12-29T00:32:13;11.20;99.90
28524;DHT22;15734;50.904;6.922;2022-12-29T00:34:57;11.20;99.90
28524;DHT22;15734;50.904;6.922;2022-12-29T00:37:42;11.30;99.90
28524;DHT22;15734;50.904;6.922;2022-12-29T00:40:27;11.30;99.90
28524;DHT22;15734;50.904;6.922;2022-12-29T00:43:11;11.40;99.90
28524;DHT22;15734;50.904;6.922;2022-12-29T00:45:55;11.50;99.90
28524;DHT22;15734;50.904;6.922;2022-12-29T00:48:21;11.50;99.90
28524;DHT22;15734;50.904;6.922;2022-12-29T00:51:05;11.60;99.90
28524;DHT22;15734;50.904;6.922;2022-12-29T00:53:31;11.60;99.90
28524;DHT22;15734;50.904;6.922;2022-12-29T00:55:57;11.80;99.90
28524;DHT22;15734;50.904;6.922;2022-12-29T00:58:22;11.90;99.90
28524;DHT22;15734;50.904;6.922;2022-12-29T01:00:48;12.00;99.90
28524;DHT22;15734;50.904;6.922;2022-12-29T01:03:13;12.10;99.90
28524;DHT22;15734;50.904;6.922;2022-12-29T01:05:39;12.10;99.90
28524;DHT22;15734;50.904;6.922;2022-12-29T01:08:04;12.10;99.90
28524;DHT22;15734;50.904;6.922;2022-12-29T01:10:30;12.10;99.90
28524;DHT22;15734;50.904;6.922;2022-12-29T01:12:55;12.20;99.90
28524;DHT22;15734;50.904;6.922;2022-12-29T01:15:21;12.20;99.90
28524;DHT22;15734;50.904;6.922;2022-12-29T01:17:46;12.30;99.90
28524;DHT22;15734;50.904;6.922;2022-12-29T01:20:12;12.30;99.90
28524;DHT22;15734;50.904;6.922;2022-12-29T01:22:37;12.30;99.90
28524;DHT22;15734;50.904;6.922;2022-12-29T01:25:03;12.30;99.90
28524;DHT22;15734;50.904;6.922;2022-12-29T01:27:29;12.40;99.90
28524;DHT22;15734;50.904;6.922;2022-12-29T01:29:54;12.50;99.90
28524;DHT22;15734;50.904;6.922;2022-12-29T01:32:20;12.50;99.90
28524;DHT22;15734;50.904;6.922;2022-12-29T01:34:45;12.50;99.90
28524;DHT22;15734;50.904;6.922;2022-12-29T01:37:11;12.60;99.90
28524;DHT22;15734;50.904;6.922;2022-12-29T01:39:36;12.60;99.90
28524;DHT22;15734;50.904;6.922;2022-12-29T01:42:02;12.60;99.90
28524;DHT22;15734;50.904;6.922;2022-12-29T01:47:12;12.90;99.90
28524;DHT22;15734;50.904;6.922;2022-12-29T01:49:39;12.80;99.90
28524;DHT22;15734;50.904;6.922;2022-12-29T01:52:05;12.80;99.90
28524;DHT22;15734;50.904;6.922;2022-12-29T01:54:33;12.80;99.90
28524;DHT22;15734;50.904;6.922;2022-12-29T01:57:00;12.80;99.90
28524;DHT22;15734;50.904;6.922;2022-12-29T01:59:28;12.90;99.90
28524;DHT22;15734;50.904;6.922;2022-12-29T02:01:54;12.90;99.90
28524;DHT22;15734;50.904;6.922;2022-12-29T02:04:20;12.90;99.90
28524;DHT22;15734;50.904;6.922;2022-12-29T02:06:54;12.90;99.90
28524;DHT22;15734;50.904;6.922;2022-12-29T02:09:21;12.80;99.90
28524;DHT22;15734;50.904;6.922;2022-12-29T02:11:47;12.80;99.90
28524;DHT22;15734;50.904;6.922;2022-12-29T02:14:13;12.80;99.90
28524;DHT22;15734;50.904;6.922;2022-12-29T02:19:25;12.80;99.90
28524;DHT22;15734;50.904;6.922;2022-12-29T02:27:19;12.80;99.90
28524;DHT22;15734;50.904;6.922;2022-12-29T02:29:57;12.90;99.90
28524;DHT22;15734;50.904;6.922;2022-12-29T02:38:42;12.70;99.90
28524;DHT22;15734;50.904;6.922;2022-12-29T02:43:33;12.70;99.90
28524;DHT22;15734;50.904;6.922;2022-12-29T02:48:49;12.60;99.90
28524;DHT22;15734;50.904;6.922;2022-12-29T02:51:18;12.60;99.90
28524;DHT22;15734;50.904;6.922;2022-12-29T02:53:45;12.60;99.90
28524;DHT22;15734;50.904;6.922;2022-12-29T02:56:29;12.60;99.90
28524;DHT22;15734;50.904;6.922;2022-12-29T02:58:54;12.50;99.90
28524;DHT22;15734;50.904;6.922;2022-12-29T03:11:27;12.40;99.90
28524;DHT22;15734;50.904;6.922;2022-12-29T03:14:17;12.40;99.90
28524;DHT22;15734;50.904;6.922;2022-12-29T03:17:08;12.30;99.90
28524;DHT22;15734;50.904;6.922;2022-12-29T03:19:36;12.40;99.90
28524;DHT22;15734;50.904;6.922;2022-12-29T03:22:06;12.40;99.90
28524;DHT22;15734;50.904;6.922;2022-12-29T03:24:52;12.40;99.90
28524;DHT22;15734;50.904;6.922;2022-12-29T03:27:19;12.30;99.90
28524;DHT22;15734;50.904;6.922;2022-12-29T03:29:49;12.30;99.90
28524;DHT22;15734;50.904;6.922;2022-12-29T03:32:19;12.40;99.90
28524;DHT22;15734;50.904;6.922;2022-12-29T03:34:45;12.40;99.90
28524;DHT22;15734;50.904;6.922;2022-12-29T03:37:12;12.40;99.90
28524;DHT22;15734;50.904;6.922;2022-12-29T03:39:39;12.40;99.90
28524;DHT22;15734;50.904;6.922;2022-12-29T03:42:06;12.40;99.90
28524;DHT22;15734;50.904;6.922;2022-12-29T03:44:35;12.50;99.90
28524;DHT22;15734;50.904;6.922;2022-12-29T03:47:01;12.50;99.90
28524;DHT22;15734;50.904;6.922;2022-12-29T03:49:27;12.50;99.90
28524;DHT22;15734;50.904;6.922;2022-12-29T03:51:52;12.40;99.90
28524;DHT22;15734;50.904;6.922;2022-12-29T03:54:18;12.40;99.90
28524;DHT22;15734;50.904;6.922;2022-12-29T03:56:43;12.30;99.90
28524;DHT22;15734;50.904;6.922;2022-12-29T03:59:09;12.30;99.90
28524;DHT22;15734;50.904;6.922;2022-12-29T04:01:34;12.30;99.90
28524;DHT22;15734;50.904;6.922;2022-12-29T04:03:59;12.30;99.90
28524;DHT22;15734;50.904;6.922;2022-12-29T04:06:25;12.20;99.90
28524;DHT22;15734;50.904;6.922;2022-12-29T04:08:50;12.30;99.90
28524;DHT22;15734;50.904;6.922;2022-12-29T04:11:16;12.20;99.90
28524;DHT22;15734;50.904;6.922;2022-12-29T04:13:41;12.40;99.90
28524;DHT22;15734;50.904;6.922;2022-12-29T04:16:07;12.30;99.90
28524;DHT22;15734;50.904;6.922;2022-12-29T04:18:33;12.30;99.90
28524;DHT22;15734;50.904;6.922;2022-12-29T04:20:59;12.30;99.90
28524;DHT22;15734;50.904;6.922;2022-12-29T04:23:29;12.50;99.90
28524;DHT22;15734;50.904;6.922;2022-12-29T04:25:55;12.40;99.90
28524;DHT22;15734;50.904;6.922;2022-12-29T04:28:20;12.30;99.90
28524;DHT22;15734;50.904;6.922;2022-12-29T04:30:46;12.30;99.90
28524;DHT22;15734;50.904;6.922;2022-12-29T04:33:11;12.20;99.90
28524;DHT22;15734;50.904;6.922;2022-12-29T04:35:37;12.30;99.90
28524;DHT22;15734;50.904;6.922;2022-12-29T04:38:02;12.30;99.90
28524;DHT22;15734;50.904;6.922;2022-12-29T04:40:28;12.30;99.90
28524;DHT22;15734;50.904;6.922;2022-12-29T04:42:54;12.40;99.90
28524;DHT22;15734;50.904;6.922;2022-12-29T04:45:19;12.30;99.90
28524;DHT22;15734;50.904;6.922;2022-12-29T04:47:45;12.30;99.90
28524;DHT22;15734;50.904;6.922;2022-12-29T04:50:10;12.50;99.90
28524;DHT22;15734;50.904;6.922;2022-12-29T04:52:36;12.40;99.90
28524;DHT22;15734;50.904;6.922;2022-12-29T04:55:01;12.30;99.90
28524;DHT22;15734;50.904;6.922;2022-12-29T04:57:27;12.50;99.90
28524;DHT22;15734;50.904;6.922;2022-12-29T04:59:52;12.50;99.90
28524;DHT22;15734;50.904;6.922;2022-12-29T05:02:18;12.50;99.90
28524;DHT22;15734;50.904;6.922;2022-12-29T05:04:43;12.60;99.90
28524;DHT22;15734;50.904;6.922;2022-12-29T05:07:09;12.50;99.90
28524;DHT22;15734;50.904;6.922;2022-12-29T05:09:34;12.60;99.90
28524;DHT22;15734;50.904;6.922;2022-12-29T05:12:00;12.70;99.90
28524;DHT22;15734;50.904;6.922;2022-12-29T05:14:25;12.70;99.90
28524;DHT22;15734;50.904;6.922;2022-12-29T05:16:51;12.60;99.90
28524;DHT22;15734;50.904;6.922;2022-12-29T05:19:16;12.50;99.90
28524;DHT22;15734;50.904;6.922;2022-12-29T05:21:42;12.50;99.90
28524;DHT22;15734;50.904;6.922;2022-12-29T05:24:07;12.50;99.90
28524;DHT22;15734;50.904;6.922;2022-12-29T05:26:33;12.40;99.90
28524;DHT22;15734;50.904;6.922;2022-12-29T05:28:58;12.40;99.90
28524;DHT22;15734;50.904;6.922;2022-12-29T05:31:25;12.50;99.90
28524;DHT22;15734;50.904;6.922;2022-12-29T05:33:50;12.40;99.90
28524;DHT22;15734;50.904;6.922;2022-12-29T05:36:16;12.40;99.90
28524;DHT22;15734;50.904;6.922;2022-12-29T05:38:41;12.50;99.90
28524;DHT22;15734;50.904;6.922;2022-12-29T05:41:07;12.50;99.90
28524;DHT22;15734;50.904;6.922;2022-12-29T05:43:32;12.50;99.90
28524;DHT22;15734;50.904;6.922;2022-12-29T05:45:58;12.50;99.90
28524;DHT22;15734;50.904;6.922;2022-12-29T05:48:23;12.50;99.90
28524;DHT22;15734;50.904;6.922;2022-12-29T05:50:49;12.50;99.90
28524;DHT22;15734;50.904;6.922;2022-12-29T05:53:15;12.40;99.90
28524;DHT22;15734;50.904;6.922;2022-12-29T05:55:40;12.40;99.90
28524;DHT22;15734;50.904;6.922;2022-12-29T05:58:06;12.50;99.90
28524;DHT22;15734;50.904;6.922;2022-12-29T06:00:31;12.50;99.90
28524;DHT22;15734;50.904;6.922;2022-12-29T06:02:57;12.60;99.90
28524;DHT22;15734;50.904;6.922;2022-12-29T06:05:22;12.60;99.90
28524;DHT22;15734;50.904;6.922;2022-12-29T06:07:48;12.50;99.90
28524;DHT22;15734;50.904;6.922;2022-12-29T06:10:13;12.60;99.90
28524;DHT22;15734;50.904;6.922;2022-12-29T06:12:39;12.60;99.90
28524;DHT22;15734;50.904;6.922;2022-12-29T06:15:04;12.60;99.90
28524;DHT22;15734;50.904;6.922;2022-12-29T06:17:30;12.70;99.90
28524;DHT22;15734;50.904;6.922;2022-12-29T06:19:55;12.70;99.90
28524;DHT22;15734;50.904;6.922;2022-12-29T06:22:21;12.70;99.90
28524;DHT22;15734;50.904;6.922;2022-12-29T06:24:46;12.70;99.90
28524;DHT22;15734;50.904;6.922;2022-12-29T06:27:12;12.70;99.90
28524;DHT22;15734;50.904;6.922;2022-12-29T06:29:39;12.60;99.90
28524;DHT22;15734;50.904;6.922;2022-12-29T06:32:06;12.60;99.90
28524;DHT22;15734;50.904;6.922;2022-12-29T06:34:31;12.50;99.90
28524;DHT22;15734;50.904;6.922;2022-12-29T06:36:57;12.40;99.90
28524;DHT22;15734;50.904;6.922;2022-12-29T06:39:22;12.40;99.90
28524;DHT22;15734;50.904;6.922;2022-12-29T06:41:48;12.50;99.90
28524;DHT22;15734;50.904;6.922;2022-12-29T06:44:13;12.50;99.90
28524;DHT22;15734;50.904;6.922;2022-12-29T06:46:38;12.40;99.90
28524;DHT22;15734;50.904;6.922;2022-12-29T06:49:04;12.30;99.90
28524;DHT22;15734;50.904;6.922;2022-12-29T06:51:29;12.30;99.90
28524;DHT22;15734;50.904;6.922;2022-12-29T06:53:55;12.30;99.90
28524;DHT22;15734;50.904;6.922;2022-12-29T06:56:20;12.40;99.90
28524;DHT22;15734;50.904;6.922;2022-12-29T06:58:46;12.50;99.90
28524;DHT22;15734;50.904;6.922;2022-12-29T07:01:11;12.60;99.90
28524;DHT22;15734;50.904;6.922;2022-12-29T07:03:37;12.60;99.90
28524;DHT22;15734;50.904;6.922;2022-12-29T07:06:02;12.60;99.90
28524;DHT22;15734;50.904;6.922;2022-12-29T07:08:28;12.60;99.90
28524;DHT22;15734;50.904;6.922;2022-12-29T07:10:53;12.50;99.90
28524;DHT22;15734;50.904;6.922;2022-12-29T07:13:18;12.60;99.90
28524;DHT22;15734;50.904;6.922;2022-12-29T07:15:44;12.50;99.90
28524;DHT22;15734;50.904;6.922;2022-12-29T07:18:09;12.50;99.90
28524;DHT22;15734;50.904;6.922;2022-12-29T07:20:35;12.50;99.90
28524;DHT22;15734;50.904;6.922;2022-12-29T07:23:00;12.40;99.90
28524;DHT22;15734;50.904;6.922;2022-12-29T07:25:27;12.40;99.90
28524;DHT22;15734;50.904;6.922;2022-12-29T07:27:53;12.30;99.90
28524;DHT22;15734;50.904;6.922;2022-12-29T07:30:18;12.40;99.90
28524;DHT22;15734;50.904;6.922;2022-12-29T07:32:44;12.30;99.90
28524;DHT22;15734;50.904;6.922;2022-12-29T07:35:09;12.30;99.90
28524;DHT22;15734;50.904;6.922;2022-12-29T07:37:35;12.20;99.90
28524;DHT22;15734;50.904;6.922;2022-12-29T07:40:01;12.30;99.90
28524;DHT22;15734;50.904;6.922;2022-12-29T07:42:26;12.30;99.90
28524;DHT22;15734;50.904;6.922;2022-12-29T07:44:52;12.30;99.90
28524;DHT22;15734;50.904;6.922;2022-12-29T07:47:17;12.20;99.90
28524;DHT22;15734;50.904;6.922;2022-12-29T07:49:43;12.10;99.90
28524;DHT22;15734;50.904;6.922;2022-12-29T07:52:08;12.20;99.90
28524;DHT22;15734;50.904;6.922;2022-12-29T07:54:34;12.20;99.90
28524;DHT22;15734;50.904;6.922;2022-12-29T07:56:59;12.30;99.90
28524;DHT22;15734;50.904;6.922;2022-12-29T07:59:25;12.20;99.90
28524;DHT22;15734;50.904;6.922;2022-12-29T08:01:51;12.20;99.90
28524;DHT22;15734;50.904;6.922;2022-12-29T08:04:16;12.20;99.90
28524;DHT22;15734;50.904;6.922;2022-12-29T08:06:42;12.20;99.90
28524;DHT22;15734;50.904;6.922;2022-12-29T08:09:07;12.30;99.90
28524;DHT22;15734;50.904;6.922;2022-12-29T08:11:33;12.30;99.90
28524;DHT22;15734;50.904;6.922;2022-12-29T08:13:58;12.20;99.90
28524;DHT22;15734;50.904;6.922;2022-12-29T08:16:24;12.20;99.90
28524;DHT22;15734;50.904;6.922;2022-12-29T08:18:49;12.20;99.90
28524;DHT22;15734;50.904;6.922;2022-12-29T08:21:15;12.20;99.90
28524;DHT22;15734;50.904;6.922;2022-12-29T08:23:40;12.20;99.90
28524;DHT22;15734;50.904;6.922;2022-12-29T08:26:06;12.30;99.90
28524;DHT22;15734;50.904;6.922;2022-12-29T08:28:31;12.30;99.90
28524;DHT22;15734;50.904;6.922;2022-12-29T08:30:58;12.30;99.90
28524;DHT22;15734;50.904;6.922;2022-12-29T08:33:23;12.20;99.90
28524;DHT22;15734;50.904;6.922;2022-12-29T08:35:49;12.20;99.90
28524;DHT22;15734;50.904;6.922;2022-12-29T08:38:14;12.20;99.90
28524;DHT22;15734;50.904;6.922;2022-12-29T08:40:40;12.20;99.90
28524;DHT22;15734;50.904;6.922;2022-12-29T08:43:05;12.00;99.90
28524;DHT22;15734;50.904;6.922;2022-12-29T08:45:31;12.20;99.90
28524;DHT22;15734;50.904;6.922;2022-12-29T08:47:57;12.10;99.90
28524;DHT22;15734;50.904;6.922;2022-12-29T08:50:22;12.10;99.90
28524;DHT22;15734;50.904;6.922;2022-12-29T08:52:48;12.20;99.90
28524;DHT22;15734;50.904;6.922;2022-12-29T08:55:13;12.20;99.90
28524;DHT22;15734;50.904;6.922;2022-12-29T08:57:38;12.10;99.90
28524;DHT22;15734;50.904;6.922;2022-12-29T09:00:04;12.10;99.90
28524;DHT22;15734;50.904;6.922;2022-12-29T09:02:30;12.20;99.90
28524;DHT22;15734;50.904;6.922;2022-12-29T09:04:55;12.10;99.90
28524;DHT22;15734;50.904;6.922;2022-12-29T09:07:22;12.20;99.90
28524;DHT22;15734;50.904;6.922;2022-12-29T09:09:48;12.20;99.90
28524;DHT22;15734;50.904;6.922;2022-12-29T09:12:13;12.20;99.90
28524;DHT22;15734;50.904;6.922;2022-12-29T09:14:39;12.20;99.90
28524;DHT22;15734;50.904;6.922;2022-12-29T09:17:05;12.20;99.90
28524;DHT22;15734;50.904;6.922;2022-12-29T09:19:48;12.20;99.90
28524;DHT22;15734;50.904;6.922;2022-12-29T09:22:14;12.20;99.90
28524;DHT22;15734;50.904;6.922;2022-12-29T09:24:39;12.10;99.90
28524;DHT22;15734;50.904;6.922;2022-12-29T09:27:05;12.20;99.90
28524;DHT22;15734;50.904;6.922;2022-12-29T09:29:30;12.20;99.90
28524;DHT22;15734;50.904;6.922;2022-12-29T09:31:56;12.30;99.90
28524;DHT22;15734;50.904;6.922;2022-12-29T09:34:21;12.30;99.90
28524;DHT22;15734;50.904;6.922;2022-12-29T09:36:47;12.30;99.90
28524;DHT22;15734;50.904;6.922;2022-12-29T09:39:12;12.40;99.90
28524;DHT22;15734;50.904;6.922;2022-12-29T09:42:13;12.40;99.90
28524;DHT22;15734;50.904;6.922;2022-12-29T09:47:14;12.40;99.90
28524;DHT22;15734;50.904;6.922;2022-12-29T09:49:45;12.50;99.90
28524;DHT22;15734;50.904;6.922;2022-12-29T09:52:16;12.50;99.90
28524;DHT22;15734;50.904;6.922;2022-12-29T09:54:46;12.60;99.90
28524;DHT22;15734;50.904;6.922;2022-12-29T09:57:26;12.60;99.90
28524;DHT22;15734;50.904;6.922;2022-12-29T09:59:57;12.60;99.90
28524;DHT22;15734;50.904;6.922;2022-12-29T10:02:32;12.70;99.90
28524;DHT22;15734;50.904;6.922;2022-12-29T10:04:58;12.70;99.90
28524;DHT22;15734;50.904;6.922;2022-12-29T10:07:38;12.70;99.90
28524;DHT22;15734;50.904;6.922;2022-12-29T10:15:29;12.60;99.90
28524;DHT22;15734;50.904;6.922;2022-12-29T10:20:48;12.80;99.90
28524;DHT22;15734;50.904;6.922;2022-12-29T10:23:19;12.90;99.90
28524;DHT22;15734;50.904;6.922;2022-12-29T10:25:47;12.90;99.90
28524;DHT22;15734;50.904;6.922;2022-12-29T10:28:20;13.00;99.90
28524;DHT22;15734;50.904;6.922;2022-12-29T10:30:47;13.00;99.90
28524;DHT22;15734;50.904;6.922;2022-12-29T10:33:15;13.00;99.90
28524;DHT22;15734;50.904;6.922;2022-12-29T10:35:43;13.00;99.90
28524;DHT22;15734;50.904;6.922;2022-12-29T10:38:12;13.00;99.90
28524;DHT22;15734;50.904;6.922;2022-12-29T10:45:52;13.00;99.90
28524;DHT22;15734;50.904;6.922;2022-12-29T10:48:21;13.00;99.90
28524;DHT22;15734;50.904;6.922;2022-12-29T10:50:48;13.10;99.90
28524;DHT22;15734;50.904;6.922;2022-12-29T10:53:17;13.10;99.90
28524;DHT22;15734;50.904;6.922;2022-12-29T10:55:44;13.10;99.90
28524;DHT22;15734;50.904;6.922;2022-12-29T10:58:11;13.10;99.90
28524;DHT22;15734;50.904;6.922;2022-12-29T11:00:37;13.10;99.90
28524;DHT22;15734;50.904;6.922;2022-12-29T11:03:15;13.10;99.90
28524;DHT22;15734;50.904;6.922;2022-12-29T11:08:14;13.10;99.90
28524;DHT22;15734;50.904;6.922;2022-12-29T11:10:41;13.10;99.90
28524;DHT22;15734;50.904;6.922;2022-12-29T11:13:18;13.10;99.90
28524;DHT22;15734;50.904;6.922;2022-12-29T11:15:47;13.20;99.90
28524;DHT22;15734;50.904;6.922;2022-12-29T11:18:46;13.10;99.90
28524;DHT22;15734;50.904;6.922;2022-12-29T11:21:06;13.10;99.90
28524;DHT22;15734;50.904;6.922;2022-12-29T11:23:36;13.20;99.90
28524;DHT22;15734;50.904;6.922;2022-12-29T11:26:13;13.10;99.90
28524;DHT22;15734;50.904;6.922;2022-12-29T11:28:40;13.10;99.90
28524;DHT22;15734;50.904;6.922;2022-12-29T11:31:06;13.10;99.90
28524;DHT22;15734;50.904;6.922;2022-12-29T11:33:33;13.10;99.90
28524;DHT22;15734;50.904;6.922;2022-12-29T11:36:01;13.10;99.90
28524;DHT22;15734;50.904;6.922;2022-12-29T11:38:31;13.10;99.90
28524;DHT22;15734;50.904;6.922;2022-12-29T11:40:58;13.10;99.90
28524;DHT22;15734;50.904;6.922;2022-12-29T11:43:43;13.10;99.90
28524;DHT22;15734;50.904;6.922;2022-12-29T11:46:19;12.90;99.90
28524;DHT22;15734;50.904;6.922;2022-12-29T11:48:45;12.90;99.90
28524;DHT22;15734;50.904;6.922;2022-12-29T11:51:11;12.90;99.90
28524;DHT22;15734;50.904;6.922;2022-12-29T11:53:47;12.90;99.90
28524;DHT22;15734;50.904;6.922;2022-12-29T11:56:17;12.80;99.90
28524;DHT22;15734;50.904;6.922;2022-12-29T11:58:44;12.90;99.90
28524;DHT22;15734;50.904;6.922;2022-12-29T12:03:40;12.80;99.90
28524;DHT22;15734;50.904;6.922;2022-12-29T12:06:10;12.80;99.90
28524;DHT22;15734;50.904;6.922;2022-12-29T12:08:48;12.80;99.90
28524;DHT22;15734;50.904;6.922;2022-12-29T12:11:27;12.80;99.90
28524;DHT22;15734;50.904;6.922;2022-12-29T12:14:02;12.80;99.90
28524;DHT22;15734;50.904;6.922;2022-12-29T12:16:33;12.80;99.90
28524;DHT22;15734;50.904;6.922;2022-12-29T12:19:20;12.80;99.90
28524;DHT22;15734;50.904;6.922;2022-12-29T12:21:50;12.80;99.90
28524;DHT22;15734;50.904;6.922;2022-12-29T12:29:41;12.80;99.90
28524;DHT22;15734;50.904;6.922;2022-12-29T12:32:10;12.70;99.90
28524;DHT22;15734;50.904;6.922;2022-12-29T12:34:40;12.80;99.90
28524;DHT22;15734;50.904;6.922;2022-12-29T12:54:36;12.70;99.90
28524;DHT22;15734;50.904;6.922;2022-12-29T12:57:17;12.70;99.90
28524;DHT22;15734;50.904;6.922;2022-12-29T13:05:03;13.20;99.90
28524;DHT22;15734;50.904;6.922;2022-12-29T13:12:48;12.80;99.90
28524;DHT22;15734;50.904;6.922;2022-12-29T13:18:15;12.60;99.90
28524;DHT22;15734;50.904;6.922;2022-12-29T13:23:32;12.40;99.90
28524;DHT22;15734;50.904;6.922;2022-12-29T13:28:28;12.30;99.90
28524;DHT22;15734;50.904;6.922;2022-12-29T13:31:07;12.30;99.90
28524;DHT22;15734;50.904;6.922;2022-12-29T13:33:46;12.30;99.90
28524;DHT22;15734;50.904;6.922;2022-12-29T13:36:33;12.30;99.90
28524;DHT22;15734;50.904;6.922;2022-12-29T13:39:04;12.20;99.90
28524;DHT22;15734;50.904;6.922;2022-12-29T13:41:35;12.20;99.90
28524;DHT22;15734;50.904;6.922;2022-12-29T13:44:02;12.20;99.90
28524;DHT22;15734;50.904;6.922;2022-12-29T13:46:29;12.10;99.90
28524;DHT22;15734;50.904;6.922;2022-12-29T13:48:59;12.20;99.90
28524;DHT22;15734;50.904;6.922;2022-12-29T13:51:26;12.20;99.90
28524;DHT22;15734;50.904;6.922;2022-12-29T13:54:00;12.20;99.90
28524;DHT22;15734;50.904;6.922;2022-12-29T13:56:34;12.10;99.90
28524;DHT22;15734;50.904;6.922;2022-12-29T13:59:16;12.10;99.90
28524;DHT22;15734;50.904;6.922;2022-12-29T14:01:45;12.10;99.90
28524;DHT22;15734;50.904;6.922;2022-12-29T14:04:14;12.10;99.90
28524;DHT22;15734;50.904;6.922;2022-12-29T14:06:40;12.10;99.90
28524;DHT22;15734;50.904;6.922;2022-12-29T14:11:51;11.90;99.90
28524;DHT22;15734;50.904;6.922;2022-12-29T14:16:42;11.80;99.90
28524;DHT22;15734;50.904;6.922;2022-12-29T14:19:19;11.80;99.90
28524;DHT22;15734;50.904;6.922;2022-12-29T14:21:59;11.70;99.90
28524;DHT22;15734;50.904;6.922;2022-12-29T14:24:26;11.70;99.90
28524;DHT22;15734;50.904;6.922;2022-12-29T14:26:52;11.60;99.90
28524;DHT22;15734;50.904;6.922;2022-12-29T14:29:41;11.60;99.90
28524;DHT22;15734;50.904;6.922;2022-12-29T14:32:34;11.50;99.90
28524;DHT22;15734;50.904;6.922;2022-12-29T14:34:49;11.50;99.90
28524;DHT22;15734;50.904;6.922;2022-12-29T14:37:27;11.40;99.90
28524;DHT22;15734;50.904;6.922;2022-12-29T14:40:35;11.40;99.90
28524;DHT22;15734;50.904;6.922;2022-12-29T14:42:48;11.30;99.90
28524;DHT22;15734;50.904;6.922;2022-12-29T14:47:40;11.20;99.90
28524;DHT22;15734;50.904;6.922;2022-12-29T14:50:07;11.20;99.90
28524;DHT22;15734;50.904;6.922;2022-12-29T14:52:41;11.20;99.90
28524;DHT22;15734;50.904;6.922;2022-12-29T14:57:47;11.20;99.90
28524;DHT22;15734;50.904;6.922;2022-12-29T15:00:22;11.20;99.90
28524;DHT22;15734;50.904;6.922;2022-12-29T15:02:49;11.20;99.90
28524;DHT22;15734;50.904;6.922;2022-12-29T15:05:27;11.20;99.90
28524;DHT22;15734;50.904;6.922;2022-12-29T15:07:54;11.10;99.90
28524;DHT22;15734;50.904;6.922;2022-12-29T15:10:21;11.10;99.90
28524;DHT22;15734;50.904;6.922;2022-12-29T15:12:54;11.10;99.90
28524;DHT22;15734;50.904;6.922;2022-12-29T15:15:24;11.10;99.90
28524;DHT22;15734;50.904;6.922;2022-12-29T15:17:50;11.10;99.90
28524;DHT22;15734;50.904;6.922;2022-12-29T15:22:43;10.90;99.90
28524;DHT22;15734;50.904;6.922;2022-12-29T15:25:12;10.80;99.90
28524;DHT22;15734;50.904;6.922;2022-12-29T15:27:39;10.90;99.90
28524;DHT22;15734;50.904;6.922;2022-12-29T15:30:12;10.80;99.90
28524;DHT22;15734;50.904;6.922;2022-12-29T15:32:39;10.70;99.90
28524;DHT22;15734;50.904;6.922;2022-12-29T15:35:20;10.70;99.90
28524;DHT22;15734;50.904;6.922;2022-12-29T15:37:47;10.60;99.90
28524;DHT22;15734;50.904;6.922;2022-12-29T15:40:21;10.60;99.90
28524;DHT22;15734;50.904;6.922;2022-12-29T15:45:32;10.60;99.90
28524;DHT22;15734;50.904;6.922;2022-12-29T15:47:58;10.60;99.90
28524;DHT22;15734;50.904;6.922;2022-12-29T15:50:28;10.50;99.90
28524;DHT22;15734;50.904;6.922;2022-12-29T15:52:54;10.40;99.90
28524;DHT22;15734;50.904;6.922;2022-12-29T15:55:21;10.30;99.90
28524;DHT22;15734;50.904;6.922;2022-12-29T15:57:49;10.30;99.90
28524;DHT22;15734;50.904;6.922;2022-12-29T16:00:21;10.30;99.90
28524;DHT22;15734;50.904;6.922;2022-12-29T16:02:48;10.30;99.90
28524;DHT22;15734;50.904;6.922;2022-12-29T16:05:16;10.30;99.90
28524;DHT22;15734;50.904;6.922;2022-12-29T16:07:51;10.30;99.90
28524;DHT22;15734;50.904;6.922;2022-12-29T16:10:22;10.30;99.90
28524;DHT22;15734;50.904;6.922;2022-12-29T16:12:49;10.20;99.90
28524;DHT22;15734;50.904;6.922;2022-12-29T16:15:15;10.20;99.90
28524;DHT22;15734;50.904;6.922;2022-12-29T16:17:46;10.20;99.90
28524;DHT22;15734;50.904;6.922;2022-12-29T16:22:47;10.20;99.90
28524;DHT22;15734;50.904;6.922;2022-12-29T16:25:19;10.10;99.90
28524;DHT22;15734;50.904;6.922;2022-12-29T16:27:46;10.10;99.90
28524;DHT22;15734;50.904;6.922;2022-12-29T16:30:25;10.10;99.90
28524;DHT22;15734;50.904;6.922;2022-12-29T16:32:52;10.00;99.90
28524;DHT22;15734;50.904;6.922;2022-12-29T16:35:19;10.00;99.90
28524;DHT22;15734;50.904;6.922;2022-12-29T16:37:46;9.90;99.90
28524;DHT22;15734;50.904;6.922;2022-12-29T16:40:30;9.90;99.90
28524;DHT22;15734;50.904;6.922;2022-12-29T16:43:00;9.80;99.90
28524;DHT22;15734;50.904;6.922;2022-12-29T16:50:38;9.50;99.90
28524;DHT22;15734;50.904;6.922;2022-12-29T16:53:05;9.50;99.90
28524;DHT22;15734;50.904;6.922;2022-12-29T16:55:31;9.50;99.90
28524;DHT22;15734;50.904;6.922;2022-12-29T16:57:57;9.50;99.90
28524;DHT22;15734;50.904;6.922;2022-12-29T17:00:24;9.40;99.90
28524;DHT22;15734;50.904;6.922;2022-12-29T17:02:52;9.40;99.90
28524;DHT22;15734;50.904;6.922;2022-12-29T17:05:19;9.30;99.90
28524;DHT22;15734;50.904;6.922;2022-12-29T17:07:45;9.20;99.90
28524;DHT22;15734;50.904;6.922;2022-12-29T17:10:11;9.30;99.90
28524;DHT22;15734;50.904;6.922;2022-12-29T17:12:37;9.20;99.90
28524;DHT22;15734;50.904;6.922;2022-12-29T17:15:07;9.20;99.90
28524;DHT22;15734;50.904;6.922;2022-12-29T17:17:38;9.30;99.90
28524;DHT22;15734;50.904;6.922;2022-12-29T17:20:26;9.30;99.90
28524;DHT22;15734;50.904;6.922;2022-12-29T17:22:51;9.30;99.90
28524;DHT22;15734;50.904;6.922;2022-12-29T17:25:19;9.30;99.90
28524;DHT22;15734;50.904;6.922;2022-12-29T17:30:15;9.20;99.90
28524;DHT22;15734;50.904;6.922;2022-12-29T17:32:41;9.30;99.90
28524;DHT22;15734;50.904;6.922;2022-12-29T17:35:12;9.30;99.90
28524;DHT22;15734;50.904;6.922;2022-12-29T17:37:38;9.30;99.90
28524;DHT22;15734;50.904;6.922;2022-12-29T17:40:04;9.30;99.90
28524;DHT22;15734;50.904;6.922;2022-12-29T17:42:30;9.20;99.90